Time;durP1;ratioP1;P1;durP2;ratioP2;P2;SDS_P1;SDS_P2;PMS_P1;PMS_P2;Temp;Humidity;BMP_temperature;BMP_pressure;BME280_temperature;BME280_humidity;BME280_pressure;Samples;Min_cycle;Max_cycle;Signal;HPM_P1;HPM_P2
2023/07/22 00:01:59;;;;;;;5.07;3.40;;;;;;;28.21;52.04;99468.78;4859692;29;20026;-43
2023/07/22 00:04:25;;;;;;;5.22;3.33;;;;;;;28.23;52.11;99474.72;4859803;29;20025;-42
2023/07/22 00:06:51;;;;;;;6.68;3.53;;;;;;;28.38;51.60;99478.84;4859709;29;20029;-44
2023/07/22 00:09:17;;;;;;;8.43;3.42;;;;;;;27.70;53.33;99468.56;4859764;29;20022;-44
2023/07/22 00:11:42;;;;;;;8.40;3.47;;;;;;;27.77;53.61;99473.56;4859653;29;20030;-43
2023/07/22 00:14:09;;;;;;;6.38;3.85;;;;;;;27.39;54.40;99457.88;4859326;29;20029;-46
2023/07/22 00:16:34;;;;;;;6.05;3.60;;;;;;;27.31;54.90;99456.75;4859121;29;20029;-44
2023/07/22 00:19:00;;;;;;;6.57;3.50;;;;;;;27.68;53.87;99465.38;4859150;29;20121;-44
2023/07/22 00:21:26;;;;;;;6.22;3.38;;;;;;;27.86;53.25;99455.22;4859050;29;20037;-45
2023/07/22 00:23:51;;;;;;;4.88;3.13;;;;;;;27.90;53.35;99474.53;4859173;29;20041;-45
2023/07/22 00:26:16;;;;;;;5.25;3.60;;;;;;;27.96;53.23;99481.44;4859378;29;20097;-42
2023/07/22 00:28:43;;;;;;;4.47;3.33;;;;;;;28.53;51.71;99486.53;4858821;29;20046;-42
2023/07/22 00:31:09;;;;;;;6.15;3.47;;;;;;;27.68;53.76;99468.94;4859066;29;20034;-46
2023/07/22 00:33:34;;;;;;;5.82;3.58;;;;;;;27.54;54.45;99470.22;4859052;29;20033;-46
2023/07/22 00:36:00;;;;;;;6.78;4.05;;;;;;;27.55;54.37;99480.84;4859051;29;20025;-43
2023/07/22 00:38:26;;;;;;;8.00;4.10;;;;;;;27.47;54.85;99481.63;4858884;29;20540;-45
2023/07/22 00:40:52;;;;;;;7.88;3.50;;;;;;;27.78;53.98;99483.34;4858883;29;20044;-44
2023/07/22 00:43:18;;;;;;;5.18;3.47;;;;;;;27.81;53.80;99488.19;4858889;29;20033;-45
2023/07/22 00:45:43;;;;;;;4.68;3.38;;;;;;;28.35;52.20;99479.50;4859047;29;20044;-43
2023/07/22 00:48:09;;;;;;;7.05;3.58;;;;;;;27.93;53.38;99480.16;4858725;29;20035;-47
2023/07/22 00:50:35;;;;;;;5.32;3.42;;;;;;;27.69;54.02;99477.91;4858556;29;20112;-43
2023/07/22 00:53:00;;;;;;;8.02;3.53;;;;;;;27.66;54.11;99492.22;4858866;29;20045;-44
2023/07/22 00:55:27;;;;;;;6.38;3.60;;;;;;;27.57;54.59;99491.41;4858853;29;20033;-44
2023/07/22 00:57:54;;;;;;;5.75;3.38;;;;;;;27.80;54.03;99494.78;4858552;29;20037;-46
2023/07/22 01:00:20;;;;;;;6.13;3.55;;;;;;;27.97;53.30;99502.16;4858402;29;20064;-45
2023/07/22 01:02:45;;;;;;;5.18;3.10;;;;;;;28.68;51.39;99493.38;4858422;29;20079;-45
2023/07/22 01:05:12;;;;;;;7.60;3.40;;;;;;;27.86;53.44;99510.69;4858895;29;20037;-43
2023/07/22 01:07:38;;;;;;;6.93;3.35;;;;;;;27.74;54.05;99504.25;4858412;29;20181;-43
2023/07/22 01:10:05;;;;;;;5.03;3.65;;;;;;;27.53;54.62;99499.50;4858579;29;20183;-42
2023/07/22 01:12:31;;;;;;;5.45;3.58;;;;;;;27.59;54.52;99511.84;4857819;29;20036;-45
2023/07/22 01:14:57;;;;;;;5.40;3.40;;;;;;;27.71;54.25;99513.13;4858379;29;20037;-44
2023/07/22 01:17:23;;;;;;;5.72;3.70;;;;;;;27.85;53.83;99508.28;4858400;29;20466;-45
2023/07/22 01:19:49;;;;;;;4.45;3.63;;;;;;;27.85;53.63;99505.53;4858686;29;20037;-45
2023/07/22 01:22:16;;;;;;;4.45;3.33;;;;;;;28.08;52.99;99498.78;4853012;29;20030;-44
2023/07/22 01:24:42;;;;;;;6.50;3.50;;;;;;;28.15;52.80;99495.53;4839078;29;20530;-45
2023/07/22 01:27:09;;;;;;;6.28;3.60;;;;;;;27.65;54.38;99509.75;4840033;29;20148;-45
2023/07/22 01:29:36;;;;;;;4.53;3.60;;;;;;;27.47;54.81;99511.69;4839527;29;20069;-44
2023/07/22 01:32:01;;;;;;;6.38;3.88;;;;;;;27.72;54.38;99526.47;4839811;29;20064;-43
2023/07/22 01:34:27;;;;;;;7.57;3.63;;;;;;;27.89;53.96;99528.38;4840029;29;20150;-46
2023/07/22 01:36:53;;;;;;;6.47;3.60;;;;;;;27.77;54.02;99512.63;4840129;29;20431;-46
2023/07/22 01:39:19;;;;;;;6.60;4.07;;;;;;;28.17;52.92;99511.59;4839834;29;20052;-43
2023/07/22 01:41:45;;;;;;;8.48;3.83;;;;;;;27.55;54.38;99513.63;4839853;29;20492;-45
2023/07/22 01:44:14;;;;;;;5.15;3.60;;;;;;;27.24;55.62;99506.34;4839375;29;20029;-43
2023/07/22 01:46:39;;;;;;;5.20;3.40;;;;;;;27.25;55.91;99515.41;4839655;29;20471;-42
2023/07/22 01:49:08;;;;;;;6.13;3.75;;;;;;;27.35;55.85;99527.94;4839416;29;20042;-45
2023/07/22 01:51:34;;;;;;;5.60;3.67;;;;;;;27.47;55.61;99530.81;4839803;29;20363;-44
2023/07/22 01:53:59;;;;;;;5.88;3.53;;;;;;;27.60;54.81;99521.66;4839728;29;20042;-43
2023/07/22 01:56:25;;;;;;;6.63;3.50;;;;;;;28.33;52.63;99515.41;4839575;29;20380;-43
2023/07/22 01:58:50;;;;;;;5.55;3.70;;;;;;;27.54;54.80;99520.22;4839564;29;20148;-45
2023/07/22 02:01:16;;;;;;;6.28;3.45;;;;;;;27.34;55.70;99516.22;4839270;29;20057;-45
2023/07/22 02:03:42;;;;;;;5.25;3.58;;;;;;;27.10;56.58;99513.91;4839647;29;20038;-45
2023/07/22 02:06:08;;;;;;;5.10;3.70;;;;;;;26.89;57.35;99519.97;4839536;29;20049;-46
2023/07/22 02:08:33;;;;;;;6.70;3.83;;;;;;;27.12;56.77;99525.31;4853753;29;20028;-45
2023/07/22 02:11:07;;;;;;;7.40;3.90;;;;;;;27.41;56.00;99521.97;4857757;29;20389;-46
2023/07/22 02:13:33;;;;;;;7.65;4.25;;;;;;;27.57;55.27;99524.22;4857844;29;20025;-46
2023/07/22 02:16:00;;;;;;;5.10;3.50;;;;;;;26.74;57.86;99522.34;4857653;29;20039;-44
2023/07/22 02:18:26;;;;;;;5.03;3.83;;;;;;;26.90;57.37;99526.22;4857732;29;20144;-45
2023/07/22 02:20:52;;;;;;;6.40;3.80;;;;;;;27.10;56.93;99524.81;4857494;29;20035;-46
2023/07/22 02:23:18;;;;;;;5.38;3.75;;;;;;;27.18;56.49;99524.00;4847185;29;20402;-44
2023/07/22 02:25:44;;;;;;;6.25;4.00;;;;;;;27.35;56.05;99539.66;4842452;29;20034;-47
2023/07/22 02:28:09;;;;;;;7.78;3.97;;;;;;;27.55;55.53;99534.66;4842358;29;20052;-45
2023/07/22 02:30:36;;;;;;;6.00;3.70;;;;;;;27.39;56.08;99548.81;4842297;29;20038;-43
2023/07/22 02:33:02;;;;;;;6.78;3.67;;;;;;;27.08;56.64;99540.72;4842665;29;20041;-47
2023/07/22 02:35:28;;;;;;;6.18;3.88;;;;;;;27.12;56.83;99541.69;4842799;29;20034;-45
2023/07/22 02:37:54;;;;;;;4.95;3.90;;;;;;;27.61;55.00;99539.66;4842660;29;20091;-45
2023/07/22 02:40:19;;;;;;;6.90;4.10;;;;;;;27.11;56.92;99526.41;4842782;29;20474;-47
2023/07/22 02:42:45;;;;;;;6.78;4.03;;;;;;;26.85;57.72;99527.19;4842529;29;20061;-45
2023/07/22 02:45:10;;;;;;;7.35;4.30;;;;;;;26.60;58.64;99523.25;4842641;29;20034;-43
2023/07/22 02:47:36;;;;;;;6.60;4.40;;;;;;;26.71;58.20;99521.03;4842636;29;20375;-42
2023/07/22 02:50:03;;;;;;;5.95;4.30;;;;;;;26.92;57.65;99515.78;4842473;29;20033;-46
2023/07/22 02:52:30;;;;;;;6.22;4.30;;;;;;;27.11;57.33;99518.22;4842394;29;20030;-47
2023/07/22 02:55:06;;;;;;;7.85;4.45;;;;;;;27.15;57.29;99521.13;4842611;29;20056;-44
2023/07/22 02:57:31;;;;;;;8.63;4.13;;;;;;;27.30;56.40;99518.78;4842439;29;20040;-47
2023/07/22 02:59:57;;;;;;;8.00;4.53;;;;;;;27.10;57.18;99520.16;4842257;29;20026;-47
2023/07/22 03:02:22;;;;;;;7.28;4.43;;;;;;;27.03;57.39;99524.47;4842430;29;20696;-46
2023/07/22 03:04:48;;;;;;;7.32;4.53;;;;;;;27.08;57.43;99538.78;4842206;29;20098;-46
2023/07/22 03:07:13;;;;;;;6.82;4.60;;;;;;;27.09;57.53;99536.84;4841998;29;20030;-45
2023/07/22 03:09:38;;;;;;;6.18;4.20;;;;;;;27.25;56.95;99529.06;4842252;29;20053;-44
2023/07/22 03:12:04;;;;;;;8.00;4.50;;;;;;;27.35;56.63;99523.25;4841998;29;20367;-43
2023/07/22 03:14:37;;;;;;;5.55;4.13;;;;;;;27.47;56.22;99517.16;4841936;29;20113;-43
2023/07/22 03:17:03;;;;;;;7.05;4.53;;;;;;;27.30;56.63;99520.69;4841686;29;20380;-44
2023/07/22 03:19:29;;;;;;;6.13;4.20;;;;;;;27.29;56.60;99517.16;4841464;29;20034;-45
2023/07/22 03:21:54;;;;;;;6.80;4.30;;;;;;;27.76;55.07;99519.22;4841767;29;20029;-46
2023/07/22 03:24:20;;;;;;;5.65;4.10;;;;;;;27.40;55.99;99520.38;4841698;29;20101;-46
2023/07/22 03:26:45;;;;;;;5.60;4.15;;;;;;;27.27;56.58;99516.66;4841715;29;20121;-42
2023/07/22 03:29:11;;;;;;;6.72;4.40;;;;;;;27.17;56.92;99519.69;4855771;29;20145;-42
2023/07/22 03:31:36;;;;;;;7.05;4.38;;;;;;;26.67;58.67;99520.88;4860600;29;20101;-46
2023/07/22 03:34:01;;;;;;;7.55;4.55;;;;;;;26.64;59.04;99532.41;4860153;29;20033;-46
2023/07/22 03:36:27;;;;;;;7.82;4.70;;;;;;;26.60;58.96;99538.81;4860419;29;20474;-46
2023/07/22 03:38:52;;;;;;;6.35;4.07;;;;;;;26.49;59.49;99535.53;4859886;29;20034;-43
2023/07/22 03:41:18;;;;;;;5.80;4.15;;;;;;;26.98;57.83;99533.63;4859455;29;20439;-45
2023/07/22 03:43:43;;;;;;;7.40;4.18;;;;;;;26.78;58.57;99539.69;4859991;29;20085;-47
2023/07/22 03:46:09;;;;;;;5.53;4.28;;;;;;;26.83;58.40;99529.41;4859662;29;20034;-45
2023/07/22 03:48:34;;;;;;;8.02;4.53;;;;;;;26.96;58.36;99530.44;4848884;29;20030;-44
2023/07/22 03:51:00;;;;;;;6.82;4.38;;;;;;;27.19;57.41;99533.84;4841229;29;20034;-44
2023/07/22 03:53:25;;;;;;;9.00;5.00;;;;;;;27.43;57.00;99541.56;4841396;29;20030;-43
2023/07/22 03:55:51;;;;;;;8.23;4.57;;;;;;;27.82;55.88;99539.81;4841224;29;20325;-43
2023/07/22 03:58:16;;;;;;;6.82;4.90;;;;;;;27.92;54.93;99535.16;4841302;29;20030;-43
2023/07/22 04:00:42;;;;;;;7.75;4.72;;;;;;;27.47;56.30;99541.75;4841560;29;20041;-43
2023/07/22 04:03:07;;;;;;;5.43;4.43;;;;;;;27.52;56.28;99538.06;4841428;29;20490;-43
2023/07/22 04:05:33;;;;;;;6.03;4.30;;;;;;;27.75;56.15;99544.94;4841520;29;20038;-44
2023/07/22 04:07:58;;;;;;;8.48;4.68;;;;;;;27.91;55.11;99555.41;4841429;29;20032;-43
2023/07/22 04:10:23;;;;;;;6.15;4.20;;;;;;;28.06;54.57;99563.09;4841037;29;20034;-42
2023/07/22 04:12:49;;;;;;;6.30;4.60;;;;;;;27.96;54.46;99555.25;4841417;29;20057;-44
2023/07/22 04:15:15;;;;;;;13.07;8.60;;;;;;;28.33;53.82;99556.47;4841405;29;20053;-43
2023/07/22 04:17:40;;;;;;;6.97;4.88;;;;;;;28.97;52.39;99560.22;4841157;29;20041;-42
2023/07/22 04:20:08;;;;;;;5.50;4.40;;;;;;;28.79;52.49;99546.63;4841302;29;20060;-43
2023/07/22 04:22:34;;;;;;;7.93;4.40;;;;;;;29.07;51.74;99556.28;4841169;29;20045;-44
2023/07/22 04:24:59;;;;;;;6.97;4.38;;;;;;;29.18;51.12;99552.06;4840929;29;20030;-44
2023/07/22 04:27:26;;;;;;;5.82;4.47;;;;;;;29.47;50.79;99553.94;4841456;29;20042;-43
2023/07/22 04:29:52;;;;;;;6.43;4.32;;;;;;;29.83;50.09;99544.31;4859473;29;20054;-43
2023/07/22 04:32:17;;;;;;;5.05;4.10;;;;;;;30.17;49.21;99554.13;4859648;29;20450;-43
2023/07/22 04:34:43;;;;;;;7.75;5.75;;;;;;;30.38;48.68;99553.28;4859299;29;20032;-44
2023/07/22 04:37:08;;;;;;;7.18;4.40;;;;;;;30.32;48.86;99557.38;4859429;29;20193;-43
2023/07/22 04:39:34;;;;;;;8.80;4.00;;;;;;;31.05;46.60;99562.09;4859313;29;20155;-42
2023/07/22 04:41:59;;;;;;;6.38;4.18;;;;;;;30.72;47.78;99560.28;4858676;29;20044;-43
2023/07/22 04:44:25;;;;;;;5.82;4.22;;;;;;;30.69;47.53;99555.47;4862203;29;20033;-42
2023/07/22 04:46:51;;;;;;;7.25;4.50;;;;;;;30.39;47.98;99565.88;4877034;29;20087;-42
2023/07/22 04:49:17;;;;;;;8.48;4.45;;;;;;;30.42;47.89;99556.94;4877752;29;20033;-43
2023/07/22 04:51:45;;;;;;;6.20;4.63;;;;;;;30.67;47.49;99548.72;4872601;29;20116;-44
2023/07/22 04:54:11;;;;;;;6.93;4.60;;;;;;;31.09;46.60;99554.81;4877492;29;20054;-42
2023/07/22 04:56:36;;;;;;;7.97;4.32;;;;;;;31.40;45.86;99558.03;4864008;29;20282;-44
2023/07/22 04:59:02;;;;;;;7.93;4.43;;;;;;;31.38;46.25;99558.41;4870496;29;20611;-44
2023/07/22 05:01:28;;;;;;;7.18;4.53;;;;;;;31.67;45.59;99562.78;4876681;29;20053;-43
2023/07/22 05:03:55;;;;;;;7.72;4.47;;;;;;;32.37;43.59;99560.72;4876592;29;20083;-43
2023/07/22 05:06:21;;;;;;;5.60;4.68;;;;;;;32.25;43.17;99558.84;4876638;29;20112;-44
2023/07/22 05:08:46;;;;;;;7.55;4.80;;;;;;;31.93;44.24;99550.53;4864046;29;20185;-44
2023/07/22 05:11:12;;;;;;;6.32;4.60;;;;;;;32.09;43.89;99559.63;4858223;29;20681;-43
2023/07/22 05:13:37;;;;;;;7.65;4.90;;;;;;;32.36;42.96;99553.63;4857962;29;20045;-43
2023/07/22 05:16:03;;;;;;;8.45;4.63;;;;;;;32.85;42.07;99567.06;4858098;29;20025;-43
2023/07/22 05:18:28;;;;;;;7.82;5.13;;;;;;;32.47;42.62;99554.72;4857987;29;20133;-44
2023/07/22 05:20:54;;;;;;;9.38;4.70;;;;;;;32.91;42.18;99549.88;4857654;29;20094;-46
2023/07/22 05:23:19;;;;;;;8.35;5.20;;;;;;;33.28;41.53;99549.56;4870659;29;20485;-44
2023/07/22 05:25:53;;;;;;;9.82;4.80;;;;;;;33.38;41.71;99561.19;4859324;29;20037;-44
2023/07/22 05:28:19;;;;;;;7.40;5.03;;;;;;;33.44;41.18;99566.03;4865050;29;20136;-44
2023/07/22 05:30:45;;;;;;;7.53;5.18;;;;;;;33.75;40.77;99569.81;4876206;29;20116;-43
2023/07/22 05:33:10;;;;;;;6.50;4.78;;;;;;;33.91;40.27;99563.41;4876291;29;20076;-45
2023/07/22 05:35:36;;;;;;;7.00;4.68;;;;;;;34.41;39.78;99569.88;4876235;29;20041;-44
2023/07/22 05:38:04;;;;;;;6.72;4.43;;;;;;;34.54;38.98;99568.53;4875995;29;20036;-43
2023/07/22 05:40:30;;;;;;;8.55;4.40;;;;;;;34.34;39.15;99564.22;4858856;29;20667;-44
2023/07/22 05:42:56;;;;;;;6.78;4.32;;;;;;;33.95;39.83;99564.28;4840111;29;20075;-43
2023/07/22 05:45:21;;;;;;;6.75;4.50;;;;;;;34.28;39.04;99564.53;4844947;29;20097;-43
2023/07/22 05:47:47;;;;;;;9.98;4.65;;;;;;;34.19;39.61;99563.97;4857445;29;20041;-43
2023/07/22 05:50:12;;;;;;;8.45;4.85;;;;;;;34.66;38.64;99564.78;4857578;29;20051;-43
2023/07/22 05:52:38;;;;;;;12.18;9.00;;;;;;;34.93;38.53;99562.84;4857485;29;20038;-45
2023/07/22 05:55:04;;;;;;;11.45;8.02;;;;;;;34.95;37.70;99562.47;4856249;29;20032;-45
2023/07/22 05:57:30;;;;;;;6.30;4.43;;;;;;;34.81;37.61;99565.81;4857425;29;20069;-43
2023/07/22 05:59:55;;;;;;;8.65;4.93;;;;;;;34.87;37.22;99558.00;4861260;29;20109;-45
2023/07/22 06:02:21;;;;;;;8.95;4.70;;;;;;;34.95;37.92;99554.19;4860671;29;20044;-44
2023/07/22 06:04:46;;;;;;;7.78;4.90;;;;;;;35.81;36.32;99553.38;4861312;29;20064;-44
2023/07/22 06:07:12;;;;;;;5.45;4.40;;;;;;;35.85;36.19;99563.66;4861188;29;20152;-43
2023/07/22 06:09:37;;;;;;;8.90;5.00;;;;;;;35.78;35.92;99559.66;4860139;29;20442;-44
2023/07/22 06:12:03;;;;;;;9.05;5.22;;;;;;;36.05;35.57;99551.22;4859294;29;20037;-42
2023/07/22 06:14:28;;;;;;;7.47;5.15;;;;;;;36.25;35.26;99551.03;4859613;29;20037;-47
2023/07/22 06:16:54;;;;;;;12.68;10.35;;;;;;;36.41;34.82;99554.34;4860631;29;20033;-45
2023/07/22 06:19:19;;;;;;;20.75;15.00;;;;;;;37.00;33.76;99554.41;4860981;29;20108;-44
2023/07/22 06:21:45;;;;;;;6.28;5.30;;;;;;;36.51;34.66;99548.09;4861139;29;20545;-46
2023/07/22 06:24:10;;;;;;;8.57;5.20;;;;;;;36.48;34.80;99543.34;4860957;29;20335;-45
2023/07/22 06:26:36;;;;;;;8.00;5.03;;;;;;;36.63;34.41;99554.50;4843878;29;20060;-44
2023/07/22 06:29:02;;;;;;;6.15;4.80;;;;;;;36.89;34.24;99548.78;4829614;29;20665;-47
2023/07/22 06:31:30;;;;;;;8.50;4.75;;;;;;;37.06;33.71;99547.28;4841150;29;20061;-46
2023/07/22 06:33:57;;;;;;;8.63;5.57;;;;;;;37.53;32.96;99550.31;4840713;29;20045;-45
2023/07/22 06:36:22;;;;;;;14.00;10.45;;;;;;;37.31;33.03;99558.53;4840674;29;20038;-47
2023/07/22 06:38:48;;;;;;;19.10;12.75;;;;;;;37.34;33.11;99557.78;4840737;29;20034;-44
2023/07/22 06:41:13;;;;;;;7.50;5.22;;;;;;;37.72;32.44;99550.00;4841106;29;20030;-47
2023/07/22 06:43:40;;;;;;;8.93;4.72;;;;;;;37.86;32.45;99554.00;4842043;29;20040;-46
2023/07/22 06:46:05;;;;;;;7.07;5.20;;;;;;;38.30;31.81;99542.56;4842240;29;20040;-46
2023/07/22 06:48:31;;;;;;;10.45;5.05;;;;;;;38.17;31.54;99555.25;4842613;29;20018;-44
2023/07/22 06:50:56;;;;;;;11.07;5.30;;;;;;;37.56;32.99;99549.53;4842424;29;20054;-43
2023/07/22 06:53:21;;;;;;;10.40;5.40;;;;;;;37.52;32.71;99551.50;4841368;29;20041;-43
2023/07/22 06:55:52;;;;;;;6.40;4.90;;;;;;;37.56;32.71;99557.84;4841810;29;20053;-43
2023/07/22 06:58:18;;;;;;;7.50;4.90;;;;;;;37.85;32.71;99557.97;4841757;29;20033;-44
2023/07/22 07:00:43;;;;;;;7.65;5.13;;;;;;;37.36;33.04;99566.50;4842200;29;20097;-44
2023/07/22 07:03:09;;;;;;;6.43;5.25;;;;;;;37.83;32.65;99554.78;4842305;29;20034;-43
2023/07/22 07:05:35;;;;;;;11.20;5.50;;;;;;;37.99;32.91;99566.34;4841871;29;20102;-45
2023/07/22 07:08:01;;;;;;;10.77;5.30;;;;;;;37.94;32.21;99563.94;4842188;29;20026;-44
2023/07/22 07:10:26;;;;;;;7.18;5.00;;;;;;;38.03;32.40;99558.00;4841074;29;20022;-45
2023/07/22 07:12:52;;;;;;;10.65;5.05;;;;;;;38.29;32.24;99549.34;4841529;29;20437;-45
2023/07/22 07:15:18;;;;;;;8.32;5.50;;;;;;;38.31;31.93;99544.19;4841884;29;20447;-44
2023/07/22 07:17:43;;;;;;;8.20;5.20;;;;;;;38.43;32.06;99542.97;4841743;29;20090;-42
2023/07/22 07:20:09;;;;;;;5.95;5.20;;;;;;;37.13;33.31;99543.78;4841693;29;20061;-44
2023/07/22 07:22:35;;;;;;;7.32;5.10;;;;;;;37.48;33.36;99545.94;4841839;29;20106;-45
2023/07/22 07:25:00;;;;;;;8.63;4.93;;;;;;;38.00;32.64;99547.69;4841611;29;20026;-44
2023/07/22 07:27:27;;;;;;;7.55;4.90;;;;;;;38.61;31.77;99536.63;4841906;29;20029;-43
2023/07/22 07:29:52;;;;;;;9.85;5.30;;;;;;;39.27;30.61;99548.03;4860015;29;20108;-46
2023/07/22 07:32:18;;;;;;;8.35;5.20;;;;;;;38.59;31.55;99548.16;4859602;29;20032;-44
2023/07/22 07:34:43;;;;;;;7.70;5.18;;;;;;;38.81;31.46;99540.59;4859540;29;20036;-42
2023/07/22 07:37:08;;;;;;;7.93;5.20;;;;;;;38.79;31.40;99545.75;4859936;29;20018;-44
2023/07/22 07:39:34;;;;;;;7.13;5.10;;;;;;;38.77;31.28;99537.03;4860392;29;20146;-45
2023/07/22 07:41:59;;;;;;;7.93;5.18;;;;;;;39.18;30.65;99538.53;4860519;29;20029;-43
2023/07/22 07:44:25;;;;;;;8.98;5.38;;;;;;;39.40;30.29;99540.03;4860324;29;20086;-45
2023/07/22 07:46:50;;;;;;;6.72;5.07;;;;;;;38.85;30.62;99537.81;4860339;29;20030;-46
2023/07/22 07:49:16;;;;;;;9.38;5.13;;;;;;;38.63;30.80;99537.03;4860611;29;20222;-45
2023/07/22 07:51:42;;;;;;;7.82;5.60;;;;;;;38.51;31.82;99544.56;4860367;29;20146;-46
2023/07/22 07:54:08;;;;;;;9.75;5.30;;;;;;;37.97;32.50;99549.28;4860719;29;20119;-48
2023/07/22 07:56:33;;;;;;;9.07;5.82;;;;;;;38.12;32.05;99553.69;4860396;29;20109;-48
2023/07/22 07:58:59;;;;;;;8.13;5.43;;;;;;;37.92;32.00;99552.44;4860197;29;20109;-47
2023/07/22 08:01:24;;;;;;;7.78;5.30;;;;;;;38.18;32.06;99539.41;4860065;29;20036;-46
2023/07/22 08:03:50;;;;;;;14.50;6.50;;;;;;;38.00;31.74;99556.78;4860294;29;20036;-48
2023/07/22 08:06:15;;;;;;;10.05;5.43;;;;;;;38.04;31.96;99557.63;4860310;29;20070;-45
2023/07/22 08:08:41;;;;;;;8.73;5.13;;;;;;;38.71;31.19;99550.53;4867781;29;20029;-45
2023/07/22 08:11:13;;;;;;;8.30;5.50;;;;;;;39.10;30.50;99554.44;4879001;29;20033;-45
2023/07/22 08:13:40;;;;;;;9.60;5.35;;;;;;;38.60;30.98;99552.53;4878391;29;20037;-44
2023/07/22 08:16:09;;;;;;;10.55;5.57;;;;;;;38.89;31.29;99550.50;4878878;29;20033;-47
2023/07/22 08:18:36;;;;;;;7.53;5.30;;;;;;;38.56;31.11;99548.16;4878588;29;20047;-44
2023/07/22 08:21:03;;;;;;;9.40;5.38;;;;;;;38.74;31.12;99537.03;4878301;29;20029;-45
2023/07/22 08:23:29;;;;;;;6.88;5.45;;;;;;;39.60;29.90;99528.41;4878553;29;20602;-44
2023/07/22 08:25:54;;;;;;;9.52;5.38;;;;;;;38.80;30.47;99532.63;4878406;29;20108;-45
2023/07/22 08:28:20;;;;;;;8.68;5.57;;;;;;;38.01;31.68;99530.63;4870694;29;20086;-46
2023/07/22 08:30:47;;;;;;;7.93;5.38;;;;;;;37.90;31.76;99532.59;4859747;29;20089;-45
2023/07/22 08:33:14;;;;;;;8.23;5.55;;;;;;;37.55;32.07;99532.09;4860366;29;20044;-46
2023/07/22 08:35:40;;;;;;;7.50;5.90;;;;;;;38.10;31.47;99521.97;4859831;29;20041;-48
2023/07/22 08:38:08;;;;;;;8.55;5.35;;;;;;;38.75;30.81;99519.94;4858866;29;20025;-46
2023/07/22 08:40:34;;;;;;;9.07;5.70;;;;;;;37.99;31.50;99516.34;4858830;29;20029;-44
2023/07/22 08:43:01;;;;;;;8.82;5.80;;;;;;;38.11;31.79;99510.44;4858787;29;20041;-45
2023/07/22 08:45:30;;;;;;;8.70;5.78;;;;;;;38.46;31.31;99508.84;4858685;29;20037;-45
2023/07/22 08:47:58;;;;;;;8.93;6.05;;;;;;;38.52;31.20;99510.03;4858862;29;20120;-44
2023/07/22 08:50:29;;;;;;;9.63;5.72;;;;;;;38.79;31.25;99512.38;4858273;29;20025;-46
2023/07/22 08:52:54;;;;;;;10.88;6.45;;;;;;;38.31;31.24;99510.06;4858767;29;20060;-44
2023/07/22 08:55:20;;;;;;;5.93;5.15;;;;;;;38.32;31.46;99506.84;4858553;29;20101;-45
2023/07/22 08:57:48;;;;;;;8.57;5.47;;;;;;;38.89;30.69;99499.66;4858408;29;20101;-45
2023/07/22 09:00:16;;;;;;;8.20;5.28;;;;;;;39.38;30.25;99506.25;4858430;29;20387;-47
2023/07/22 09:02:41;;;;;;;7.82;5.55;;;;;;;39.93;29.40;99499.22;4858689;29;20033;-47
2023/07/22 09:05:09;;;;;;;7.93;5.35;;;;;;;40.14;29.33;99497.47;4859015;29;20407;-44
2023/07/22 09:07:35;;;;;;;7.50;5.50;;;;;;;40.30;28.80;99485.78;4858437;29;20033;-46
2023/07/22 09:10:02;;;;;;;7.22;5.47;;;;;;;39.98;29.14;99492.41;4858423;29;20281;-46
2023/07/22 09:12:28;;;;;;;8.05;5.28;;;;;;;39.79;29.42;99488.13;4858251;29;20040;-45
2023/07/22 09:14:54;;;;;;;8.93;5.63;;;;;;;40.11;28.91;99492.72;4858536;29;20033;-43
2023/07/22 09:17:19;;;;;;;11.70;5.75;;;;;;;40.52;28.30;99494.75;4858578;29;20037;-44
2023/07/22 09:19:44;;;;;;;7.78;5.40;;;;;;;40.64;28.15;99489.44;4858280;29;20022;-46
2023/07/22 09:22:10;;;;;;;8.18;5.70;;;;;;;41.56;26.75;99497.13;4858326;29;20029;-44
2023/07/22 09:24:35;;;;;;;7.03;5.50;;;;;;;40.64;27.91;99495.00;4858414;29;20379;-48
2023/07/22 09:27:01;;;;;;;8.55;5.78;;;;;;;39.74;28.53;99483.00;4858136;29;20037;-46
2023/07/22 09:29:52;;;;;;;9.05;5.65;;;;;;;39.65;29.52;99477.91;4858134;29;20088;-46
2023/07/22 09:32:34;;;;;;;9.93;5.90;;;;;;;40.20;28.72;99470.75;4853275;29;20434;-45
2023/07/22 09:35:00;;;;;;;9.50;6.07;;;;;;;40.72;28.38;99467.06;4858480;29;20525;-43
2023/07/22 09:37:37;;;;;;;7.63;5.63;;;;;;;41.16;27.69;99468.94;4857606;29;20057;-44
2023/07/22 09:40:13;;;;;;;11.27;6.40;;;;;;;40.95;27.74;99474.78;4858220;29;20029;-46
2023/07/22 09:42:39;;;;;;;13.98;5.97;;;;;;;40.42;28.57;99466.59;4858331;29;20033;-46
2023/07/22 09:45:05;;;;;;;13.15;6.00;;;;;;;40.69;27.71;99463.13;4858217;29;20110;-43
2023/07/22 09:47:40;;;;;;;7.22;5.60;;;;;;;40.91;27.91;99457.31;4858446;29;20038;-45
2023/07/22 09:50:06;;;;;;;6.15;5.43;;;;;;;41.15;27.62;99452.63;4858491;29;20034;-49
2023/07/22 09:52:31;;;;;;;10.13;5.57;;;;;;;41.51;27.01;99446.56;4858407;29;20057;-45
2023/07/22 09:54:59;;;;;;;8.73;5.78;;;;;;;40.91;26.95;99440.56;4858194;29;20072;-46
2023/07/22 09:57:25;;;;;;;10.43;6.10;;;;;;;40.21;27.98;99431.34;4858149;29;20039;-43
2023/07/22 09:59:53;;;;;;;8.52;5.32;;;;;;;40.31;28.27;99431.63;4858021;29;20477;-44
2023/07/22 10:02:22;;;;;;;6.55;5.47;;;;;;;40.29;28.33;99426.47;4857590;29;20089;-47
2023/07/22 10:04:51;;;;;;;9.38;6.20;;;;;;;40.76;27.34;99429.59;4858044;29;20034;-45
2023/07/22 10:07:19;;;;;;;8.30;5.60;;;;;;;41.03;27.24;99414.91;4857812;29;20038;-48
2023/07/22 10:09:46;;;;;;;8.30;5.88;;;;;;;40.92;27.70;99417.84;4857897;29;20108;-46
2023/07/22 10:12:14;;;;;;;11.13;6.03;;;;;;;40.05;28.94;99412.34;4857953;29;20034;-47
2023/07/22 10:14:41;;;;;;;9.38;5.68;;;;;;;39.65;29.19;99420.22;4858575;29;20135;-47
2023/07/22 10:17:08;;;;;;;9.73;5.93;;;;;;;39.31;29.46;99411.66;4857953;29;20533;-44
2023/07/22 10:19:34;;;;;;;11.70;5.57;;;;;;;39.38;29.88;99408.84;4858328;29;20043;-43
2023/07/22 10:22:00;;;;;;;7.00;5.68;;;;;;;39.04;30.63;99406.66;4858046;29;20117;-44
2023/07/22 10:24:28;;;;;;;10.18;5.63;;;;;;;39.93;29.83;99403.72;4858621;29;20033;-44
2023/07/22 10:26:53;;;;;;;8.18;5.85;;;;;;;39.62;29.23;99417.47;4857964;29;20061;-45
2023/07/22 10:29:20;;;;;;;9.80;5.60;;;;;;;39.35;29.87;99409.66;4857676;29;20104;-43
2023/07/22 10:31:45;;;;;;;7.93;5.53;;;;;;;39.38;30.91;99408.06;4857903;29;20415;-43
2023/07/22 10:34:11;;;;;;;8.48;5.60;;;;;;;39.39;30.14;99393.72;4857627;29;20033;-46
2023/07/22 10:36:36;;;;;;;9.05;6.20;;;;;;;39.53;29.92;99403.19;4858042;29;20164;-47
2023/07/22 10:39:02;;;;;;;8.75;5.85;;;;;;;40.16;28.71;99409.47;4857492;29;20036;-44
2023/07/22 10:41:28;;;;;;;7.40;5.57;;;;;;;39.59;29.21;99385.69;4857404;29;20533;-46
2023/07/22 10:43:55;;;;;;;9.13;5.85;;;;;;;39.80;28.68;99378.34;4858020;29;20029;-44
2023/07/22 10:46:35;;;;;;;10.27;5.75;;;;;;;39.74;28.64;99391.13;4860634;29;20029;-48
2023/07/22 10:49:15;;;;;;;10.93;5.70;;;;;;;39.42;29.11;99379.00;4860904;29;20473;-46
2023/07/22 10:51:46;;;;;;;8.50;5.38;;;;;;;40.03;29.01;99361.06;4861298;29;20486;-46
2023/07/22 10:54:13;;;;;;;9.52;5.43;;;;;;;40.70;28.24;99383.81;4861063;29;20033;-44
2023/07/22 10:56:48;;;;;;;12.55;5.53;;;;;;;40.33;27.86;99382.66;4860906;29;20040;-44
2023/07/22 10:59:13;;;;;;;6.47;5.07;;;;;;;40.25;28.42;99378.31;4860762;29;20470;-43
2023/07/22 11:01:40;;;;;;;6.88;5.20;;;;;;;39.90;27.91;99368.34;4860852;29;20039;-44
2023/07/22 11:04:17;;;;;;;8.15;5.07;;;;;;;39.61;28.56;99361.00;4860711;29;20430;-44
2023/07/22 11:06:48;;;;;;;10.75;5.60;;;;;;;40.12;28.50;99366.94;4860476;29;20050;-43
2023/07/22 11:09:42;;;;;;;7.80;5.07;;;;;;;40.39;28.14;99358.72;4860596;29;20029;-44
2023/07/22 11:12:16;;;;;;;7.68;5.30;;;;;;;40.40;28.16;99348.34;4857105;29;20061;-42
2023/07/22 11:14:46;;;;;;;7.95;4.95;;;;;;;40.34;28.69;99353.59;4860594;29;20057;-44
2023/07/22 11:17:12;;;;;;;9.73;5.38;;;;;;;40.69;28.36;99364.72;4860886;29;20048;-45
2023/07/22 11:19:38;;;;;;;7.97;5.00;;;;;;;40.72;27.57;99342.38;4860589;29;20037;-44
2023/07/22 11:22:05;;;;;;;10.63;5.32;;;;;;;40.61;27.61;99356.47;4860217;29;20382;-43
2023/07/22 11:24:34;;;;;;;10.10;4.82;;;;;;;40.82;26.61;99347.06;4860457;29;20424;-43
2023/07/22 11:27:03;;;;;;;8.05;5.25;;;;;;;41.05;26.68;99342.75;4860715;29;20042;-44
2023/07/22 11:29:28;;;;;;;9.85;5.15;;;;;;;41.34;25.64;99336.78;4860125;29;20057;-45